Logo AVAMET
Benvolgut visitant, si us plau, ingressa Recuperar contrasenya
AVAMET paisatges

Bétera la Conarda

Dades diàries. Acumulats / Últims 30 dies disponibles

Data Temperatura (°C) Humitat rel. (%) Pressió rel. (hPa) Vent (km/h) Precipitació
Mínima Mitjana Màxima Amplitud
tèrmica
Mínima Mitjana Màxima Mínima Mitjana Màxima Predom. Mitjana Ràfega
màxima
Total
(mm)
Índex-n
Mínima Mitjana Màxima Mínima Mitjana Màxima n
0 a 1
P0 max
mm 5'
Dades mensuals acumulades fins l'últim dia disponible
10/2020 8,3 12,9 17,8 18,1 21,0 24,6 31,8 23,5 26 62 92 991 1.015 1.025   2,4 70,8 3,0
Dades anuals acumulades fins l'últim dia disponible
2020 1,1 14,4 24,8 19,0 8,7 24,0 34,6 33,5 21 70 98 991 1.018 1.035   4,4 85,0 353,0
Últims 30 dies disponibles
19-10-2020 12,1     16,5     21,1 9,0 61 80 87 1.019 1.021 1.022 ESE 1,0 20,9 0,0
18-10-2020 10,2     15,4     21,7 11,5 53 72 87 1.019 1.021 1.022 ESE 1,0 20,9 0,0
17-10-2020 9,7     14,9     22,6 12,9 38 65 78 1.015 1.017 1.019 W 1,9 24,1 0,0
16-10-2020 8,3     14,1     21,0 12,7 31 53 71 1.015 1.017 1.018 NNW 2,1 22,5 0,0
15-10-2020 10,9     16,1     22,0 11,1 32 48 76 1.013 1.014 1.017 NNW 4,3 40,2 0,0
14-10-2020 13,8     17,2     21,3 7,5 50 69 79 1.008 1.010 1.014 SE 0,8 25,7 0,0
13-10-2020 12,2     19,4     28,2 16,0 34 56 77 1.010 1.014 1.019 WSW 1,1 27,4 0,0
12-10-2020 13,9     17,7     24,3 10,4 31 47 68 1.018 1.020 1.022 NNW 2,3 35,4 0,0
11-10-2020 15,0     18,3     23,4 8,4 31 52 92 1.019 1.021 1.023 NNW 2,4 35,4 0,0
10-10-2020 17,8     20,2     24,4 6,6 66 83 92 1.020 1.021 1.023 N 1,3 20,9 0,4
09-10-2020 16,1     20,3     24,8 8,7 66 82 91 1.020 1.022 1.023 E 2,1 25,7 0,0
08-10-2020 15,2     20,2     25,3 10,1 62 74 89 1.022 1.023 1.025 ESE 1,1 20,9 0,0
07-10-2020 17,6     22,7     29,8 12,2 35 56 69 1.019 1.020 1.023 WSW 0,6 16,1 0,0
06-10-2020 11,6     17,4     28,4 16,8 36 57 72 1.018 1.020 1.021 WSW 0,3 17,7 0,0
05-10-2020 13,0     17,8     25,5 12,5 29 54 71 1.011 1.015 1.020 WSW 2,4 25,7 0,0
04-10-2020 8,9     16,8     23,3 14,4 41 54 75 1.006 1.009 1.011 WSW 4,2 45,1 0,0
03-10-2020 11,3     16,7     23,6 12,3 35 50 68 1.000 1.005 1.010 WSW 3,4 38,6 0,0
02-10-2020 12,5     18,6     24,7 12,2 49 61 86 991 997 1.005 WSW 7,2 70,8 2,4 0,74 1,20
01-10-2020 14,7     22,8     31,8 17,1 26 58 90 1.004 1.008 1.013 WSW 5,5 37,0 0,2
30-09-2020 14,5     19,0     24,4 9,9 61 79 87 1.013 1.015 1.018 SSO 2,3 22,5 0,0
29-09-2020 13,3     18,5     23,9 10,6 55 68 77 1.017 1.018 1.020 ESE 1,4 22,5 0,0
28-09-2020 12,3     18,1     24,9 12,6 33 53 71 1.014 1.016 1.019 WSW 2,1 24,1 0,0
27-09-2020 14,6     20,1     24,4 9,8 25 49 70 1.008 1.011 1.014 NNW 3,7 37,0 0,0
26-09-2020 14,1     19,9     27,0 12,9 33 44 55 1.010 1.015 1.020 WSW 1,3 25,7 0,0
25-09-2020 18,2     22,4     27,6 9,4 24 43 64 1.012 1.015 1.020 WSW 2,9 30,6 0,0
24-09-2020 20,9     24,0     28,9 8,0 45 61 67 1.010 1.012 1.014 WSW 4,5 49,9 0,0
23-09-2020 19,1     24,1     30,7 11,6 40 64 90 1.010 1.012 1.013 WSW 1,3 25,7 0,0
22-09-2020 18,1     23,0     30,6 12,5 36 71 90 1.010 1.014 1.016 WSW 3,2 38,6 0,0
21-09-2020 18,2     22,7     27,8 9,6 48 69 82 1.014 1.015 1.016 E 3,9 25,7 0,0
20-09-2020 18,2     23,9     30,6 12,4 39 59 79 1.013 1.015 1.016 WSW 2,9 32,2 0,0
Últims 13 mesos disponibles
09/2020 12,3 17,9 20,9 22,5 23,9 27,8 30,7 18,4 43 66 85 1.011 1.017 1.023 ESE 3,3 49,9 43,4
08/2020 15,8 21,6 24,8 26,1 26,4 31,0 34,2 18,4 51 70 81 1.004 1.013 1.018 E 4,9 41,8 7,6
07/2020 18,0 21,3 23,8 25,7 26,5 30,2 34,6 16,6 51 72 82 1.011 1.016 1.020 E 5,0 45,1 10,2
06/2020 13,9 17,9 20,8 22,5 21,2 27,5 31,4 17,5 41 69 88 1.004 1.014 1.021 E 5,2 49,9 17,2
05/2020 12,1 15,6 19,1 20,3 18,7 25,6 32,9 20,8 52 69 85 1.005 1.017 1.027 E 4,7 53,1 24,0
04/2020 7,2 11,6 16,8 15,3 14,7 19,8 26,4 19,2 52 78 93 1.005 1.016 1.026 ESE 3,6 42,0 44,2
03/2020 3,9 9,5 15,4 13,7 10,3 18,0 25,0 21,1 49 71 91 1.008 1.017 1.027 74,0 85,6
02/2020 5,1 8,6 12,6 14,6 13,3 20,5 27,8 22,7 46 68 87 1.014 1.025 1.033 48,0 3,2
01/2020 1,1 5,9 13,1 10,8 8,7 15,7 22,8 21,7 56 73 92 1.017 1.025 1.033 85,0 113,4
12/2019 3,1 9,1 15,4 13,5 11,4 17,8 24,4 21,3 54 70 91 1.002 1.019 1.034 74,0 54,0
11/2019 4,3 10,6 19,7 15,2 15,3 19,9 28,9 24,6 46 58 82 1.000 1.010 1.018 56,0 3,8
10/2019 9,2 14,6 19,5 19,8 14,8 24,9 34,8 25,6 45 67 84 1.008 1.016 1.022 42,0 22,8
09/2019 14,7 18,6 22,4 23,1 20,6 27,5 34,0 19,3 58 72 81 1.011 1.018 1.025 E 0,5 70,8 107,2
Tots els anys disponibles
2019 1,3 12,8 25,3 18,0 11,4 23,1 41,0 39,7 39 65 91 996 1.017 1.034 0,2 85,0 363,0
2018 1,3 13,3 24,9 18,0 8,4 22,8 37,2 35,9 40 67 96 994 1.016 1.036 SSO 0,3 64,0 621,6
2017 -1,3 12,8 23,9 17,8 7,9 22,7 36,8 38,1 35 67 92 999 1.020 1.037 0,0 77,0 367,7
2016 2,1 13,5 24,8 18,1 10,4 22,8 36,9 34,8 58 67 77 1.011 1.016 1.021 64,0 383,2
2015 0,1 13,1 19,6 18,2 22,7 23,3 41,8 41,7 58 66 75 1.015 1.019 1.030 135,0 427,4
2014 1,2 13,7 23,9 18,5 10,1 23,3 41,2 40,0 38 65 90 993 1.016 1.033 66,0 282,4
Temperatura (°C)
Humitat relativa (%)
Velocitat del vent i ràfega màxima (km/h)
Direcció del vent (°)
Pressió (hPa)
Precipitació (mm)
Nota sobre les dades: s'avisa a l'usuari de la provisionalitat i no oficialitat d'aquestes dades
Logo AVAMET blanc
Web allotjada a Sollutia
Llicència de Creative CommonsLa web d'AVAMET i els seus continguts estan subjectes a una llicència de
Reconeixement - No Comercial - Compartir igual
Últimes estacions: Alfondeguilla (Soci), Santa Magdalena de Polpís (Soci),  Benafigos (Ajuntament Soci), Carlet - Ajuntament (Inforatge), Montroi (Inforatge), Bronchales (Limítrofe-Terol/Aj. Soci), Sueca - Muntanyeta dels Sants (Inforatge), Vilamarxant - Ajuntament (Aj. Soci/Inforatge), Monteagudo del Castillo - El Portero (Limítrofe-Terol/Soci), Calzadilla de los Barros (Limítrofe-Badajoz/Soci) - - -